Time;durP1;ratioP1;P1;durP2;ratioP2;P2;SDS_P1;SDS_P2;PMS_P1;PMS_P2;Temp;Humidity;BMP_temperature;BMP_pressure;BME280_temperature;BME280_humidity;BME280_pressure;Samples;Min_cycle;Max_cycle;Signal;HPM_P1;HPM_P2
2021/04/27 00:01:40;;;;;;;9.60;8.87;;;19.10;31.80;;;;;;5031567;28;20464;-73
2021/04/27 00:04:05;;;;;;;8.90;8.10;;;19.10;31.90;;;;;;5034486;28;20173;-73
2021/04/27 00:06:31;;;;;;;8.27;7.30;;;19.00;31.80;;;;;;5033337;28;20297;-73
2021/04/27 00:08:57;;;;;;;9.33;8.53;;;19.10;31.90;;;;;;5034975;28;20204;-73
2021/04/27 00:11:23;;;;;;;8.30;7.67;;;19.10;31.90;;;;;;5034799;28;20173;-73
2021/04/27 00:13:48;;;;;;;8.47;7.87;;;19.00;31.80;;;;;;5034767;28;20204;-73
2021/04/27 00:16:14;;;;;;;8.60;7.90;;;19.10;31.80;;;;;;5034608;28;20451;-73
2021/04/27 00:18:39;;;;;;;8.47;7.77;;;19.00;31.70;;;;;;5034792;28;20193;-73
2021/04/27 00:21:05;;;;;;;7.90;7.30;;;19.00;31.80;;;;;;5034557;28;20208;-73
2021/04/27 00:23:31;;;;;;;9.60;8.80;;;19.00;31.70;;;;;;5034715;28;20208;-73
2021/04/27 00:25:56;;;;;;;8.80;8.10;;;19.00;31.80;;;;;;5033030;28;20177;-73
2021/04/27 00:28:23;;;;;;;8.70;8.03;;;19.00;31.80;;;;;;5034622;28;20197;-73
2021/04/27 00:30:50;;;;;;;8.17;7.57;;;19.00;31.70;;;;;;5034492;28;20165;-73
2021/04/27 00:33:16;;;;;;;8.30;7.60;;;19.00;31.70;;;;;;5034478;28;20403;-73
2021/04/27 00:35:41;;;;;;;8.27;7.57;;;19.00;31.70;;;;;;5034296;28;20407;-73
2021/04/27 00:38:07;;;;;;;8.30;7.63;;;19.00;31.70;;;;;;5034361;28;20553;-72
2021/04/27 00:40:32;;;;;;;8.43;7.80;;;19.00;31.80;;;;;;5034159;28;20179;-72
2021/04/27 00:42:58;;;;;;;8.10;7.50;;;19.00;31.70;;;;;;5034390;28;20208;-72
2021/04/27 00:45:27;;;;;;;7.50;7.00;;;19.00;31.70;;;;;;5034158;28;20180;-73
2021/04/27 00:47:54;;;;;;;8.30;7.70;;;19.00;31.80;;;;;;5032960;28;20457;-72
2021/04/27 00:50:24;;;;;;;8.07;7.47;;;19.00;31.70;;;;;;5034053;28;20478;-72
2021/04/27 00:52:51;;;;;;;8.13;7.43;;;19.00;31.70;;;;;;5034152;28;20408;-73
2021/04/27 00:55:17;;;;;;;8.10;7.50;;;19.00;31.70;;;;;;5033765;28;20411;-73
2021/04/27 00:57:43;;;;;;;7.20;6.70;;;19.00;31.80;;;;;;5033981;28;20469;-73
2021/04/27 01:00:12;;;;;;;7.70;7.03;;;19.00;31.70;;;;;;5034018;28;20975;-73
2021/04/27 01:02:38;;;;;;;7.87;7.27;;;19.00;32.00;;;;;;5032810;28;20415;-73
2021/04/27 01:05:15;;;;;;;8.10;7.60;;;19.00;31.70;;;;;;5033794;28;20450;-73
2021/04/27 01:07:52;;;;;;;7.90;7.40;;;19.00;31.70;;;;;;5033975;28;20435;-73
2021/04/27 01:10:24;;;;;;;8.13;7.53;;;18.90;31.70;;;;;;5033644;28;20463;-73
2021/04/27 01:13:22;;;;;;;7.63;7.03;;;19.00;31.80;;;;;;5033919;28;20763;-73
2021/04/27 01:15:50;;;;;;;7.43;6.83;;;18.90;31.60;;;;;;5040497;28;20439;-73
2021/04/27 01:18:17;;;;;;;7.70;7.10;;;18.90;31.70;;;;;;5033584;28;20891;-74
2021/04/27 01:20:46;;;;;;;7.97;7.40;;;18.90;31.70;;;;;;5033526;28;20512;-73
2021/04/27 01:23:21;;;;;;;7.87;7.20;;;19.00;31.80;;;;;;5032306;28;20471;-73
2021/04/27 01:25:50;;;;;;;6.70;6.30;;;18.90;31.70;;;;;;5033212;28;20413;-73
2021/04/27 01:28:18;;;;;;;7.63;7.03;;;19.00;31.80;;;;;;5033359;28;20439;-72
2021/04/27 01:30:44;;;;;;;7.23;6.73;;;18.90;31.70;;;;;;5033297;28;21021;-73
2021/04/27 01:33:16;;;;;;;7.40;6.77;;;18.90;31.70;;;;;;5033455;28;20415;-73
2021/04/27 01:35:43;;;;;;;6.83;6.30;;;18.90;31.60;;;;;;5033056;28;20494;-73
2021/04/27 01:38:09;;;;;;;7.10;6.63;;;18.90;31.70;;;;;;5033227;28;20462;-73
2021/04/27 01:40:34;;;;;;;8.27;7.50;;;18.90;31.70;;;;;;5033089;28;20415;-72
2021/04/27 01:43:02;;;;;;;7.20;6.70;;;18.90;31.70;;;;;;5033147;28;20418;-73
2021/04/27 01:45:29;;;;;;;6.13;5.73;;;18.90;31.70;;;;;;5033003;28;20206;-73
2021/04/27 01:47:59;;;;;;;6.77;6.27;;;18.90;31.70;;;;;;5033102;28;20456;-73
2021/04/27 01:50:26;;;;;;;6.90;6.50;;;18.90;31.70;;;;;;5032975;28;20461;-73
2021/04/27 01:52:52;;;;;;;7.10;6.53;;;18.90;31.70;;;;;;5033152;28;20792;-73
2021/04/27 01:55:19;;;;;;;6.80;6.40;;;18.90;31.70;;;;;;5032779;28;20399;-73
2021/04/27 01:57:45;;;;;;;6.87;6.33;;;18.90;31.70;;;;;;5032839;28;21007;-73
2021/04/27 02:00:13;;;;;;;6.70;6.23;;;18.90;31.70;;;;;;5032928;28;20538;-73
2021/04/27 02:02:39;;;;;;;6.63;6.13;;;18.90;31.70;;;;;;5032741;28;20177;-72
2021/04/27 02:05:06;;;;;;;6.60;6.10;;;18.90;31.60;;;;;;5032734;28;20412;-73
2021/04/27 02:07:34;;;;;;;6.90;6.40;;;18.90;31.70;;;;;;5032979;28;20435;-73
2021/04/27 02:10:05;;;;;;;6.67;6.20;;;18.80;31.60;;;;;;5031706;28;20463;-73
2021/04/27 02:12:32;;;;;;;6.83;6.33;;;18.80;31.60;;;;;;5033041;28;20399;-73
2021/04/27 02:14:58;;;;;;;7.17;6.67;;;18.80;31.60;;;;;;5032676;28;20450;-73
2021/04/27 02:17:31;;;;;;;7.00;6.50;;;18.90;31.60;;;;;;5040755;28;20445;-72
2021/04/27 02:19:59;;;;;;;6.43;6.03;;;18.90;31.70;;;;;;5032840;28;20259;-73
2021/04/27 02:22:27;;;;;;;6.30;5.90;;;18.90;31.70;;;;;;5028746;28;20411;-73
2021/04/27 02:24:54;;;;;;;6.03;5.63;;;18.80;31.60;;;;;;5027751;28;20412;-73
2021/04/27 02:27:20;;;;;;;6.40;5.93;;;18.90;31.70;;;;;;5028645;28;21005;-73
2021/04/27 02:29:46;;;;;;;6.20;5.80;;;18.80;31.60;;;;;;5027091;28;20498;-73
2021/04/27 02:32:13;;;;;;;5.90;5.50;;;18.80;31.60;;;;;;5028519;28;20408;-73
2021/04/27 02:34:39;;;;;;;6.83;6.43;;;18.80;31.60;;;;;;5027146;28;20850;-73
2021/04/27 02:37:04;;;;;;;6.60;6.10;;;18.80;31.60;;;;;;5027632;28;20435;-73
2021/04/27 02:39:30;;;;;;;6.40;6.00;;;18.80;31.60;;;;;;5032067;28;20176;-73
2021/04/27 02:41:55;;;;;;;7.10;6.70;;;18.80;31.60;;;;;;5030910;28;20226;-73
2021/04/27 02:44:22;;;;;;;6.07;5.67;;;18.80;31.60;;;;;;5030987;28;20655;-73
2021/04/27 02:46:47;;;;;;;5.90;5.50;;;18.80;31.60;;;;;;5031706;28;20176;-73
2021/04/27 02:49:13;;;;;;;6.40;6.00;;;18.80;31.60;;;;;;5032097;28;20477;-73
2021/04/27 02:51:40;;;;;;;6.40;6.00;;;18.80;31.70;;;;;;5031857;28;20267;-72
2021/04/27 02:54:06;;;;;;;5.20;4.90;;;18.80;31.60;;;;;;5032018;28;20407;-73
2021/04/27 02:56:33;;;;;;;6.67;6.20;;;18.80;31.60;;;;;;5031691;28;20847;-72
2021/04/27 02:58:59;;;;;;;6.40;5.90;;;18.80;31.60;;;;;;5030572;28;20439;-73
2021/04/27 03:01:25;;;;;;;6.97;6.47;;;18.80;31.60;;;;;;5031815;28;20423;-73
2021/04/27 03:03:51;;;;;;;5.90;5.50;;;18.80;31.60;;;;;;5031892;28;20407;-73
2021/04/27 03:06:16;;;;;;;5.57;5.27;;;18.80;31.60;;;;;;5031635;28;20169;-73
2021/04/27 03:08:42;;;;;;;6.40;6.00;;;18.80;31.60;;;;;;5031450;28;20435;-73
2021/04/27 03:11:07;;;;;;;6.50;6.10;;;18.80;31.60;;;;;;5032006;28;20172;-73
2021/04/27 03:13:34;;;;;;;5.63;5.27;;;18.80;31.60;;;;;;5032019;28;20165;-73
2021/04/27 03:16:00;;;;;;;5.67;5.37;;;18.80;31.60;;;;;;5031490;28;20195;-72
2021/04/27 03:18:25;;;;;;;5.67;5.37;;;18.70;31.50;;;;;;5031729;28;20799;-73
2021/04/27 03:20:51;;;;;;;6.40;6.00;;;18.80;31.60;;;;;;5030385;28;20695;-73
2021/04/27 03:23:17;;;;;;;6.10;5.77;;;18.80;31.60;;;;;;5031751;28;20722;-73
2021/04/27 03:25:42;;;;;;;5.67;5.27;;;18.70;31.60;;;;;;5031374;28;20173;-73
2021/04/27 03:28:08;;;;;;;6.17;5.77;;;18.70;31.60;;;;;;5031717;28;20829;-73
2021/04/27 03:30:35;;;;;;;5.50;5.10;;;18.70;31.60;;;;;;5030292;28;20204;-73
2021/04/27 03:33:00;;;;;;;5.63;5.23;;;18.70;31.60;;;;;;5031627;28;20816;-73
2021/04/27 03:35:27;;;;;;;5.83;5.50;;;18.70;31.60;;;;;;5031503;28;20408;-73
2021/04/27 03:37:53;;;;;;;5.70;5.40;;;18.70;31.60;;;;;;5032806;28;20192;-73
2021/04/27 03:40:18;;;;;;;5.57;5.27;;;18.70;31.70;;;;;;5035480;28;20415;-72
2021/04/27 03:42:44;;;;;;;4.37;4.17;;;18.80;31.80;;;;;;5035633;28;20422;-73
2021/04/27 03:45:15;;;;;;;5.20;4.80;;;18.90;31.60;;;;;;5035203;28;20177;-72
2021/04/27 03:47:41;;;;;;;5.00;4.70;;;19.00;31.40;;;;;;5035360;28;20733;-73
2021/04/27 03:50:08;;;;;;;5.30;5.00;;;19.10;31.20;;;;;;5035068;28;20450;-73
2021/04/27 03:52:33;;;;;;;5.50;5.20;;;19.20;31.00;;;;;;5035231;28;20404;-73
2021/04/27 03:54:59;;;;;;;5.67;5.37;;;19.30;30.80;;;;;;5035155;28;20422;-73
2021/04/27 03:57:25;;;;;;;5.60;5.20;;;19.40;30.70;;;;;;5034881;28;20192;-73
2021/04/27 03:59:50;;;;;;;4.83;4.63;;;19.50;30.50;;;;;;5043074;28;20185;-73
2021/04/27 04:02:16;;;;;;;5.57;5.20;;;19.60;30.40;;;;;;5035409;28;20173;-73
2021/04/27 04:04:41;;;;;;;5.53;5.13;;;19.60;30.40;;;;;;5035035;28;20230;-73
2021/04/27 04:07:07;;;;;;;5.40;5.10;;;19.70;30.30;;;;;;5034794;28;20617;-73
2021/04/27 04:09:32;;;;;;;5.30;5.00;;;19.60;30.10;;;;;;5035036;28;20211;-72
2021/04/27 04:11:58;;;;;;;5.37;5.07;;;19.70;30.20;;;;;;5035298;28;20251;-73
2021/04/27 04:14:24;;;;;;;5.40;5.10;;;19.70;30.20;;;;;;5033686;28;20189;-73
2021/04/27 04:16:49;;;;;;;5.70;5.30;;;19.70;30.10;;;;;;5034625;28;20252;-73
2021/04/27 04:19:15;;;;;;;5.53;5.23;;;19.70;30.10;;;;;;5034884;28;20177;-73
2021/04/27 04:21:40;;;;;;;5.67;5.37;;;19.70;30.10;;;;;;5034769;28;20714;-72
2021/04/27 04:24:07;;;;;;;4.57;4.37;;;19.70;30.10;;;;;;5034860;28;20192;-73
2021/04/27 04:26:32;;;;;;;5.50;5.10;;;19.70;30.20;;;;;;5034468;28;20446;-73
2021/04/27 04:28:58;;;;;;;4.90;4.60;;;19.70;30.20;;;;;;5034564;28;20486;-73
2021/04/27 04:31:23;;;;;;;5.40;5.00;;;19.70;30.10;;;;;;5034567;28;20179;-73
2021/04/27 04:33:49;;;;;;;5.40;5.00;;;19.70;30.10;;;;;;5045847;28;20216;-73
2021/04/27 04:36:15;;;;;;;5.00;4.70;;;19.70;30.30;;;;;;5034399;28;20172;-73
2021/04/27 04:38:40;;;;;;;5.20;4.90;;;19.70;30.20;;;;;;5034736;28;20196;-73
2021/04/27 04:41:08;;;;;;;4.67;4.43;;;19.70;30.20;;;;;;5033375;28;20479;-73
2021/04/27 04:43:34;;;;;;;5.00;4.70;;;19.70;30.30;;;;;;5034365;28;20219;-71
2021/04/27 04:45:59;;;;;;;5.00;4.50;;;19.60;29.70;;;;;;5034003;28;20442;-71
2021/04/27 04:48:25;;;;;;;5.10;4.60;;;19.70;28.60;;;;;;5033758;28;20218;-71
2021/04/27 04:50:50;;;;;;;4.90;4.60;;;19.70;28.20;;;;;;5033942;28;20686;-71
2021/04/27 04:53:16;;;;;;;4.40;4.10;;;19.70;28.20;;;;;;5034194;28;20191;-71
2021/04/27 04:55:42;;;;;;;4.80;4.50;;;19.70;27.80;;;;;;5033792;28;20655;-71
2021/04/27 04:58:08;;;;;;;4.00;3.80;;;19.70;27.80;;;;;;5034037;28;20275;-71
2021/04/27 05:00:34;;;;;;;4.40;4.00;;;19.70;27.70;;;;;;5033886;28;20498;-71
2021/04/27 05:02:59;;;;;;;4.40;4.10;;;19.70;27.60;;;;;;5033893;28;20516;-71
2021/04/27 05:05:26;;;;;;;4.30;4.00;;;19.70;27.40;;;;;;5033692;28;20180;-71
2021/04/27 05:08:02;;;;;;;4.33;4.13;;;19.70;27.70;;;;;;5033788;28;20733;-71
2021/04/27 05:10:28;;;;;;;4.40;4.10;;;19.60;27.80;;;;;;5033728;28;20513;-71
2021/04/27 05:12:54;;;;;;;3.97;3.70;;;19.60;27.70;;;;;;5033786;28;20410;-72
2021/04/27 05:15:20;;;;;;;4.60;4.03;;;19.60;27.60;;;;;;5033322;28;20428;-70
2021/04/27 05:17:46;;;;;;;6.20;3.70;;;19.60;27.50;;;;;;5033618;28;20216;-71
2021/04/27 05:20:12;;;;;;;4.60;4.20;;;19.60;27.60;;;;;;5033754;28;20431;-71
2021/04/27 05:22:38;;;;;;;4.47;4.07;;;19.60;27.90;;;;;;5033640;28;20442;-71
2021/04/27 05:25:05;;;;;;;4.80;4.50;;;19.60;28.10;;;;;;5034512;28;20733;-71
2021/04/27 05:27:30;;;;;;;4.63;4.23;;;19.60;28.10;;;;;;5035655;28;20210;-71
2021/04/27 05:29:56;;;;;;;5.30;4.20;;;19.60;28.30;;;;;;5040854;28;20557;-70
2021/04/27 05:32:21;;;;;;;5.67;4.47;;;19.60;28.30;;;;;;5041556;28;20187;-70
2021/04/27 05:34:47;;;;;;;4.20;3.83;;;19.60;28.30;;;;;;5041570;28;20574;-70
2021/04/27 05:37:12;;;;;;;4.07;3.77;;;19.60;28.30;;;;;;5033157;28;20193;-71
2021/04/27 05:39:38;;;;;;;4.50;4.20;;;19.60;28.30;;;;;;5046051;28;20184;-71
2021/04/27 05:42:04;;;;;;;4.53;4.13;;;19.50;28.40;;;;;;5040543;28;20188;-72
2021/04/27 05:44:30;;;;;;;6.30;4.27;;;19.60;28.50;;;;;;5040323;28;20181;-71
2021/04/27 05:46:56;;;;;;;5.17;4.10;;;19.60;28.60;;;;;;5027226;28;20806;-70
2021/04/27 05:49:22;;;;;;;5.30;4.00;;;19.60;28.70;;;;;;5033114;28;20705;-71
2021/04/27 05:51:48;;;;;;;8.23;3.80;;;19.60;28.80;;;;;;5032995;28;20208;-70
2021/04/27 05:54:13;;;;;;;6.10;4.17;;;19.60;28.80;;;;;;5038331;28;20176;-70
2021/04/27 05:56:39;;;;;;;4.37;4.07;;;19.60;28.90;;;;;;5032671;28;20419;-71
2021/04/27 05:59:05;;;;;;;4.63;4.10;;;19.60;28.80;;;;;;5033307;28;20562;-73
2021/04/27 06:01:31;;;;;;;4.53;4.13;;;19.70;29.00;;;;;;5034012;28;20184;-68
2021/04/27 06:03:57;;;;;;;4.60;4.20;;;19.60;28.80;;;;;;5030917;28;20439;-70
2021/04/27 06:06:22;;;;;;;4.17;3.80;;;19.60;28.90;;;;;;5035765;28;20454;-71
2021/04/27 06:08:48;;;;;;;5.53;3.87;;;19.50;28.10;;;;;;5034094;28;20203;-71
2021/04/27 06:11:14;;;;;;;5.07;4.67;;;19.40;26.50;;;;;;5035588;28;20177;-72
2021/04/27 06:13:40;;;;;;;4.57;4.27;;;19.30;26.20;;;;;;5032546;28;20412;-74
2021/04/27 06:16:06;;;;;;;6.40;4.20;;;19.30;26.80;;;;;;5032376;28;20216;-72
2021/04/27 06:18:31;;;;;;;5.03;4.03;;;19.30;26.90;;;;;;5033291;28;20729;-73
2021/04/27 06:20:57;;;;;;;5.80;4.30;;;19.30;27.10;;;;;;5040506;28;20502;-75
2021/04/27 06:23:23;;;;;;;4.73;3.60;;;19.20;27.30;;;;;;5032835;28;20215;-75
2021/04/27 06:25:49;;;;;;;8.03;3.90;;;19.20;27.50;;;;;;5032806;28;20177;-75
2021/04/27 06:28:14;;;;;;;5.90;3.67;;;19.20;27.70;;;;;;5032172;28;20431;-74
2021/04/27 06:30:41;;;;;;;5.17;3.83;;;19.20;27.80;;;;;;5032556;28;20470;-75
2021/04/27 06:33:07;;;;;;;4.33;4.03;;;19.20;27.90;;;;;;5031588;28;20247;-73
2021/04/27 06:35:33;;;;;;;3.93;3.63;;;19.20;28.00;;;;;;5030720;28;20984;-74
2021/04/27 06:37:59;;;;;;;3.77;3.57;;;19.10;28.10;;;;;;5030926;28;20446;-73
2021/04/27 06:40:24;;;;;;;4.93;3.90;;;19.10;28.10;;;;;;5032136;28;20196;-72
2021/04/27 06:42:50;;;;;;;3.93;3.60;;;19.10;28.30;;;;;;5031873;28;20665;-72
2021/04/27 06:45:16;;;;;;;7.07;3.83;;;19.20;28.50;;;;;;5031755;28;20172;-72
2021/04/27 06:47:42;;;;;;;4.80;4.50;;;19.20;28.40;;;;;;5032100;28;20219;-72
2021/04/27 06:50:08;;;;;;;4.20;3.83;;;19.20;28.40;;;;;;5031680;28;20258;-72
2021/04/27 06:52:34;;;;;;;4.00;3.60;;;19.10;28.40;;;;;;5032105;28;20176;-72
2021/04/27 06:55:00;;;;;;;3.30;3.10;;;19.10;28.50;;;;;;5031971;28;20411;-72
2021/04/27 06:57:26;;;;;;;3.43;3.23;;;19.10;28.50;;;;;;5029167;28;20250;-70
2021/04/27 06:59:52;;;;;;;4.00;3.80;;;19.20;28.60;;;;;;5031327;28;20451;-72
2021/04/27 07:02:19;;;;;;;3.60;3.40;;;19.10;28.60;;;;;;5031929;28;20451;-72
2021/04/27 07:04:45;;;;;;;3.23;3.03;;;19.10;28.70;;;;;;5031707;28;20770;-73
2021/04/27 07:07:10;;;;;;;3.80;3.60;;;19.10;28.80;;;;;;5031547;28;20434;-71
2021/04/27 07:09:36;;;;;;;4.10;3.73;;;19.10;28.80;;;;;;5031754;28;20293;-72
2021/04/27 07:12:02;;;;;;;4.17;3.87;;;19.10;28.90;;;;;;5032872;28;20264;-71
2021/04/27 07:14:28;;;;;;;4.10;3.80;;;19.10;28.90;;;;;;5030446;28;20247;-72
2021/04/27 07:16:54;;;;;;;4.03;3.70;;;19.00;28.90;;;;;;5033604;28;20873;-71
2021/04/27 07:19:20;;;;;;;4.03;3.80;;;19.10;29.00;;;;;;5042117;28;20550;-72
2021/04/27 07:21:45;;;;;;;4.03;3.73;;;19.00;29.10;;;;;;5037151;28;20427;-72
2021/04/27 07:24:11;;;;;;;3.73;3.37;;;19.10;29.20;;;;;;5035744;28;20874;-71
2021/04/27 07:26:41;;;;;;;3.80;3.60;;;19.00;29.30;;;;;;5035180;28;20541;-71
2021/04/27 07:29:08;;;;;;;3.77;3.57;;;19.00;29.30;;;;;;5039195;28;20455;-71
2021/04/27 07:31:34;;;;;;;3.93;3.73;;;19.00;29.30;;;;;;5035676;28;20532;-71
2021/04/27 07:33:59;;;;;;;4.17;3.97;;;19.00;29.30;;;;;;5035235;28;20446;-71
2021/04/27 07:36:25;;;;;;;4.00;3.70;;;19.00;29.30;;;;;;5034232;28;20215;-71
2021/04/27 07:38:50;;;;;;;4.23;4.00;;;19.00;29.30;;;;;;5035412;28;20189;-72
2021/04/27 07:41:16;;;;;;;4.13;3.93;;;19.00;29.30;;;;;;5035434;28;20177;-71
2021/04/27 07:43:42;;;;;;;3.30;3.20;;;19.00;29.30;;;;;;5035652;28;20165;-71
2021/04/27 07:46:07;;;;;;;4.00;3.80;;;19.00;29.30;;;;;;5040392;28;20181;-70
2021/04/27 07:48:33;;;;;;;3.97;3.73;;;19.00;29.30;;;;;;5039343;28;20381;-70
2021/04/27 07:50:59;;;;;;;4.20;4.00;;;19.00;29.30;;;;;;5035169;28;20600;-72
2021/04/27 07:53:24;;;;;;;4.60;4.20;;;19.00;29.30;;;;;;5035354;28;20411;-72
2021/04/27 07:55:50;;;;;;;4.30;4.10;;;19.00;29.30;;;;;;5035229;28;20169;-70
2021/04/27 07:58:16;;;;;;;4.10;3.90;;;19.00;29.30;;;;;;5035177;28;20227;-73
2021/04/27 08:00:41;;;;;;;4.20;4.00;;;19.00;29.30;;;;;;5035089;28;20184;-70
2021/04/27 08:03:07;;;;;;;4.23;3.93;;;19.00;29.30;;;;;;5035114;28;20172;-72
2021/04/27 08:05:32;;;;;;;3.93;3.73;;;19.00;29.30;;;;;;5034772;28;20173;-71
2021/04/27 08:07:58;;;;;;;4.00;3.70;;;19.00;29.30;;;;;;5039208;28;20207;-72
2021/04/27 08:10:24;;;;;;;4.37;4.00;;;19.00;29.30;;;;;;5044856;28;20253;-71
2021/04/27 08:12:51;;;;;;;4.20;4.00;;;18.90;29.20;;;;;;5036656;28;20180;-72
2021/04/27 08:15:20;;;;;;;3.57;3.40;;;18.90;29.30;;;;;;5038296;28;20438;-72
2021/04/27 08:17:46;;;;;;;4.00;3.80;;;18.90;29.30;;;;;;5044967;28;20501;-71
2021/04/27 08:20:14;;;;;;;3.83;3.63;;;19.00;29.50;;;;;;5037513;28;20411;-71
2021/04/27 08:22:41;;;;;;;4.17;3.87;;;18.90;29.40;;;;;;5042924;28;20431;-71
2021/04/27 08:28:57;;;;;;;5.57;4.20;;;18.90;29.50;;;;;;5033963;28;20414;-72
2021/04/27 08:31:23;;;;;;;3.40;3.20;;;18.90;29.50;;;;;;5033286;28;20427;-71
2021/04/27 08:33:48;;;;;;;3.73;3.53;;;18.90;29.60;;;;;;5034681;28;20476;-72
2021/04/27 08:36:15;;;;;;;3.50;3.30;;;18.90;29.60;;;;;;5028391;28;20226;-72
2021/04/27 08:38:41;;;;;;;4.00;3.80;;;18.90;29.60;;;;;;5031416;28;20196;-72
2021/04/27 08:41:07;;;;;;;3.90;3.70;;;18.90;29.70;;;;;;5034476;28;20403;-73
2021/04/27 08:43:33;;;;;;;3.50;3.20;;;18.90;29.70;;;;;;5033603;28;20910;-71
2021/04/27 08:45:59;;;;;;;3.40;3.30;;;18.90;29.70;;;;;;5033561;28;20192;-72
2021/04/27 08:48:25;;;;;;;4.60;4.30;;;18.90;29.70;;;;;;5033990;28;20431;-72
2021/04/27 08:50:51;;;;;;;3.73;3.57;;;18.90;29.70;;;;;;5033739;28;20568;-72
2021/04/27 08:53:18;;;;;;;4.33;4.00;;;18.90;29.70;;;;;;5033881;28;20983;-73
2021/04/27 08:55:45;;;;;;;3.70;3.60;;;18.90;29.80;;;;;;5033992;28;20963;-72
2021/04/27 08:58:12;;;;;;;4.13;3.93;;;18.90;29.70;;;;;;5033950;28;20947;-73
2021/04/27 09:00:39;;;;;;;3.50;3.40;;;18.90;29.70;;;;;;5033621;28;20419;-72
2021/04/27 09:03:07;;;;;;;3.77;3.60;;;18.90;29.70;;;;;;5034021;28;20422;-72
2021/04/27 09:05:35;;;;;;;4.00;3.80;;;18.90;29.80;;;;;;5033711;28;20419;-73
2021/04/27 09:08:02;;;;;;;3.50;3.40;;;18.90;29.80;;;;;;5033558;28;20467;-72
2021/04/27 09:10:49;;;;;;;3.57;3.37;;;18.90;29.80;;;;;;5033790;28;20482;-72
2021/04/27 09:13:17;;;;;;;4.00;3.70;;;18.90;29.80;;;;;;5032796;28;20749;-71
2021/04/27 09:15:50;;;;;;;3.87;3.67;;;18.90;29.80;;;;;;5032908;28;20838;-71
2021/04/27 09:18:21;;;;;;;3.87;3.67;;;18.90;29.90;;;;;;5033615;28;20423;-71
2021/04/27 09:20:52;;;;;;;3.30;3.20;;;18.90;29.90;;;;;;5031741;28;20418;-72
2021/04/27 09:23:17;;;;;;;4.50;4.20;;;18.90;29.90;;;;;;5033083;28;20411;-72
2021/04/27 09:26:19;;;;;;;3.50;3.40;;;18.90;29.90;;;;;;5033379;28;20415;-71
2021/04/27 09:28:51;;;;;;;4.20;4.00;;;18.90;29.90;;;;;;5032039;28;20199;-71
2021/04/27 09:31:29;;;;;;;3.70;3.60;;;18.90;29.90;;;;;;5031575;28;20510;-71
2021/04/27 09:34:22;;;;;;;3.93;3.73;;;18.90;29.90;;;;;;5033127;28;20527;-73
2021/04/27 09:36:57;;;;;;;3.53;3.33;;;18.90;29.90;;;;;;5032113;28;20407;-71
2021/04/27 09:39:36;;;;;;;3.40;3.30;;;18.90;29.90;;;;;;5033236;28;20418;-72
2021/04/27 09:42:16;;;;;;;3.40;3.30;;;18.90;30.00;;;;;;5033165;28;20468;-72
2021/04/27 09:44:45;;;;;;;3.57;3.47;;;18.90;30.00;;;;;;5032662;28;20845;-73
2021/04/27 09:47:29;;;;;;;4.17;3.90;;;18.90;30.00;;;;;;5038536;28;20438;-72
2021/04/27 09:50:01;;;;;;;3.90;3.70;;;18.90;30.00;;;;;;5031984;28;20976;-72
2021/04/27 09:52:28;;;;;;;3.70;3.53;;;18.90;30.00;;;;;;5033140;28;20408;-72
2021/04/27 09:55:04;;;;;;;4.20;3.90;;;18.90;30.00;;;;;;5032908;28;20407;-72
2021/04/27 09:57:35;;;;;;;5.30;4.00;;;18.90;29.90;;;;;;5039327;28;20492;-72
2021/04/27 10:00:29;;;;;;;3.50;3.40;;;18.90;29.90;;;;;;5032560;28;20995;-71
2021/04/27 10:02:56;;;;;;;3.80;3.70;;;18.90;30.00;;;;;;5032680;28;20466;-72
2021/04/27 10:05:23;;;;;;;4.00;3.80;;;18.90;30.00;;;;;;5032829;28;20985;-72
2021/04/27 10:07:49;;;;;;;4.40;4.17;;;18.90;30.00;;;;;;5032665;28;20526;-73
2021/04/27 10:10:19;;;;;;;3.80;3.70;;;18.90;29.90;;;;;;5034820;28;20874;-72
2021/04/27 10:12:46;;;;;;;3.87;3.67;;;18.90;30.00;;;;;;5032671;28;20419;-71
2021/04/27 10:15:12;;;;;;;3.87;3.67;;;18.90;30.00;;;;;;5032776;28;20431;-72
2021/04/27 10:17:38;;;;;;;3.73;3.53;;;18.90;30.00;;;;;;5032688;28;20419;-74
2021/04/27 10:20:07;;;;;;;3.80;3.60;;;18.90;30.00;;;;;;5033118;28;20226;-73
2021/04/27 10:22:33;;;;;;;4.20;3.90;;;18.90;30.00;;;;;;5033017;28;20256;-73
2021/04/27 10:25:00;;;;;;;3.37;3.27;;;18.90;30.00;;;;;;5033059;28;20424;-73
2021/04/27 10:27:28;;;;;;;3.60;3.40;;;18.90;30.00;;;;;;5033092;28;21005;-72
2021/04/27 10:30:18;;;;;;;3.27;3.07;;;18.90;30.00;;;;;;5042404;28;20972;-72
2021/04/27 10:33:06;;;;;;;3.70;3.50;;;18.90;30.00;;;;;;5017491;28;20563;-72
2021/04/27 10:35:33;;;;;;;3.10;3.00;;;18.90;30.00;;;;;;5016101;28;20416;-71
2021/04/27 10:38:18;;;;;;;3.40;3.30;;;18.90;30.00;;;;;;5012843;28;20490;-72
2021/04/27 10:40:48;;;;;;;3.40;3.30;;;18.90;30.00;;;;;;5012878;28;20408;-73
2021/04/27 10:43:26;;;;;;;3.47;3.37;;;18.90;30.00;;;;;;5012996;28;20420;-73
2021/04/27 10:45:57;;;;;;;4.00;3.80;;;18.90;30.00;;;;;;5012130;28;20498;-71
2021/04/27 10:48:31;;;;;;;3.70;3.50;;;18.90;29.90;;;;;;5012339;28;20781;-72
2021/04/27 10:50:59;;;;;;;3.70;3.50;;;18.90;29.90;;;;;;5012530;28;20491;-72
2021/04/27 10:53:34;;;;;;;3.40;3.20;;;19.00;30.00;;;;;;5012407;28;20423;-72
2021/04/27 10:56:00;;;;;;;4.20;4.00;;;18.90;29.90;;;;;;5012336;28;20410;-72
2021/04/27 10:58:46;;;;;;;4.17;3.97;;;18.90;29.90;;;;;;5012177;28;20428;-71
2021/04/27 11:01:25;;;;;;;3.30;3.20;;;19.00;30.00;;;;;;5012182;28;20408;-69
2021/04/27 11:03:53;;;;;;;4.43;4.13;;;19.00;30.20;;;;;;5012501;28;20435;-70
2021/04/27 11:06:18;;;;;;;5.80;4.17;;;19.10;30.30;;;;;;5012460;28;20462;-70
2021/04/27 11:13:02;;;;;;;5.07;4.50;;;19.20;29.90;;;;;;5011883;28;20200;-70
2021/04/27 11:15:32;;;;;;;5.73;5.23;;;19.30;29.80;;;;;;5010131;28;20427;-70
2021/04/27 11:18:09;;;;;;;5.00;4.70;;;19.30;29.50;;;;;;5012021;28;20800;-69
2021/04/27 11:20:58;;;;;;;4.50;4.30;;;19.30;29.50;;;;;;5027279;28;20408;-69
2021/04/27 11:23:41;;;;;;;5.23;4.80;;;19.40;29.60;;;;;;5012235;28;20459;-70
2021/04/27 11:26:31;;;;;;;4.53;4.23;;;19.40;29.60;;;;;;5010511;28;20466;-70
2021/04/27 11:29:35;;;;;;;5.30;4.83;;;19.40;29.60;;;;;;5011967;28;20436;-70
2021/04/27 11:32:05;;;;;;;6.30;4.40;;;19.50;29.60;;;;;;5014780;28;20420;-70
2021/04/27 11:34:47;;;;;;;5.10;4.60;;;19.50;29.60;;;;;;5010649;28;20412;-70
2021/04/27 11:37:48;;;;;;;6.67;5.20;;;19.50;29.60;;;;;;5011697;28;20456;-70
2021/04/27 11:40:16;;;;;;;5.23;4.83;;;19.50;29.70;;;;;;5011922;28;20496;-70
2021/04/27 11:42:43;;;;;;;4.80;4.50;;;19.50;29.60;;;;;;5011756;28;20418;-70
2021/04/27 11:45:14;;;;;;;4.80;4.40;;;19.50;29.70;;;;;;5011438;28;20412;-70
2021/04/27 11:47:41;;;;;;;5.13;4.83;;;19.50;29.60;;;;;;5011728;28;20440;-70
2021/04/27 11:50:12;;;;;;;5.57;5.00;;;19.50;29.60;;;;;;5011663;28;20452;-70
2021/04/27 11:52:52;;;;;;;4.57;4.27;;;19.50;29.60;;;;;;5011741;28;20918;-70
2021/04/27 11:55:23;;;;;;;5.00;4.70;;;19.50;29.60;;;;;;5010531;28;20459;-70
2021/04/27 11:57:58;;;;;;;5.07;4.73;;;19.50;29.60;;;;;;5011818;28;20456;-71
2021/04/27 12:00:40;;;;;;;5.67;4.50;;;19.50;29.60;;;;;;5015214;28;20922;-69
2021/04/27 12:03:32;;;;;;;4.87;4.50;;;19.50;29.60;;;;;;5015446;28;20907;-70
2021/04/27 12:06:07;;;;;;;4.83;4.53;;;19.50;29.50;;;;;;5014955;28;20408;-70
2021/04/27 12:08:41;;;;;;;4.87;4.57;;;19.50;29.40;;;;;;5019910;28;20430;-70
2021/04/27 12:11:20;;;;;;;5.30;4.90;;;19.60;29.30;;;;;;5035024;28;20450;-70
2021/04/27 12:13:48;;;;;;;5.50;5.10;;;19.60;29.30;;;;;;5034647;28;20913;-69
2021/04/27 12:16:20;;;;;;;4.83;4.63;;;19.50;29.20;;;;;;5034676;28;20435;-70
2021/04/27 12:18:49;;;;;;;4.93;4.63;;;19.50;29.30;;;;;;5034890;28;20912;-71
2021/04/27 12:21:32;;;;;;;5.00;4.70;;;19.60;29.30;;;;;;5035095;28;20408;-70
2021/04/27 12:24:04;;;;;;;4.93;4.70;;;19.60;29.30;;;;;;5034862;28;20430;-73
2021/04/27 12:26:31;;;;;;;5.27;4.97;;;19.60;29.30;;;;;;5034450;28;20403;-73
2021/04/27 12:29:00;;;;;;;5.03;4.57;;;19.60;30.00;;;;;;5034470;28;20427;-69
2021/04/27 12:31:27;;;;;;;4.43;4.03;;;19.60;29.40;;;;;;5034662;28;20902;-70
2021/04/27 12:34:01;;;;;;;4.50;4.30;;;19.60;29.30;;;;;;5033359;28;20510;-70
2021/04/27 12:36:38;;;;;;;5.37;4.90;;;19.60;29.30;;;;;;5032921;28;20464;-70
2021/04/27 12:39:24;;;;;;;4.67;4.30;;;19.60;29.40;;;;;;5034400;28;21006;-70
2021/04/27 12:41:52;;;;;;;4.47;4.13;;;19.60;29.30;;;;;;5034511;28;20802;-69
2021/04/27 12:44:36;;;;;;;4.80;4.43;;;19.60;29.20;;;;;;5033237;28;20466;-70
2021/04/27 12:47:05;;;;;;;5.20;4.70;;;19.60;29.30;;;;;;5034154;28;20490;-69
2021/04/27 12:49:34;;;;;;;5.53;5.07;;;19.60;29.30;;;;;;5034173;28;20541;-70
2021/04/27 12:52:06;;;;;;;5.10;4.80;;;19.60;29.30;;;;;;5034107;28;20404;-70
2021/04/27 12:54:31;;;;;;;5.80;5.40;;;19.60;29.30;;;;;;5034254;28;20418;-71
2021/04/27 12:57:16;;;;;;;5.37;4.90;;;19.60;29.30;;;;;;5032765;28;20825;-71
2021/04/27 12:59:46;;;;;;;5.27;4.87;;;19.60;29.40;;;;;;5034201;28;20164;-70
2021/04/27 13:02:16;;;;;;;5.83;5.33;;;19.60;29.40;;;;;;5033935;28;20419;-71
2021/04/27 13:04:50;;;;;;;5.00;4.60;;;19.60;29.40;;;;;;5033985;28;20411;-70